Tatabanya, Hungary
Current Conditions -  °F | °C
As of 5:45 PM on Monday 26 Jan 2015 (Local Time) from LHPR Reporting Station
Clear Clear  
Wind Chill: 30°   Ceiling: Unl
Heat Index: 30°   Visibility: 6mi
Dew Point: 23°   Wind: 3mph
Humidity: 75%   Direction: 310°NW
Pressure: 30.21"   Gusts: NA
Location:  47.55°N, 18.44°E
Report Text: LHPR 261545Z 31003KT CAVOK M01/M05 Q1023
Loading
Personal Weather Stations






























Interactive Weather Map New forecast layout! Learn more

10-Day Weather Forecast

Advertisements
Track Severe Weather on mobile